Time;durP1;ratioP1;P1;durP2;ratioP2;P2;SDS_P1;SDS_P2;PMS_P1;PMS_P2;Temp;Humidity;BMP_temperature;BMP_pressure;BME280_temperature;BME280_humidity;BME280_pressure;Samples;Min_cycle;Max_cycle;Signal;HPM_P1;HPM_P2
2021/05/11 00:00:36;;;;;;;0.45;0.45;;;14.00;65.70;;;;;;5010817;28;20133;-65
2021/05/11 00:03:02;;;;;;;0.30;0.30;;;14.00;65.60;;;;;;5010771;28;20520;-65
2021/05/11 00:05:30;;;;;;;0.40;0.40;;;13.90;65.90;;;;;;5010760;28;20125;-65
2021/05/11 00:07:59;;;;;;;0.40;0.40;;;13.90;66.00;;;;;;5010800;28;20073;-65
2021/05/11 00:10:27;;;;;;;0.30;0.30;;;13.90;66.00;;;;;;5011108;28;20046;-65
2021/05/11 00:12:54;;;;;;;0.40;0.40;;;13.90;66.30;;;;;;5010273;28;20583;-65
2021/05/11 00:15:21;;;;;;;0.30;0.30;;;13.80;66.40;;;;;;5009876;28;20078;-65
2021/05/11 00:17:47;;;;;;;0.50;0.50;;;13.80;66.30;;;;;;5010568;28;20050;-65
2021/05/11 00:20:15;;;;;;;0.30;0.30;;;13.80;66.40;;;;;;5007961;28;20517;-65
2021/05/11 00:22:41;;;;;;;0.57;0.57;;;13.80;66.50;;;;;;4997700;28;20092;-65
2021/05/11 00:25:08;;;;;;;0.38;0.38;;;13.80;66.60;;;;;;5010944;28;20509;-65
2021/05/11 00:27:34;;;;;;;0.88;0.50;;;13.80;66.80;;;;;;5010787;28;20124;-65
2021/05/11 00:30:01;;;;;;;0.40;0.40;;;13.80;66.70;;;;;;5010910;28;20121;-65
2021/05/11 00:32:27;;;;;;;0.38;0.30;;;13.80;66.80;;;;;;5013042;28;20058;-65
2021/05/11 00:34:53;;;;;;;0.40;0.40;;;13.70;67.40;;;;;;5014108;28;20073;-65
2021/05/11 00:37:20;;;;;;;0.38;0.35;;;13.70;67.50;;;;;;5013881;28;20049;-65
2021/05/11 00:39:46;;;;;;;0.20;0.20;;;13.70;67.90;;;;;;5013811;28;20092;-65
2021/05/11 00:42:12;;;;;;;0.20;0.20;;;13.60;67.50;;;;;;5014234;28;20092;-65
2021/05/11 00:44:39;;;;;;;0.17;0.17;;;13.60;67.40;;;;;;5013938;28;20052;-65
2021/05/11 00:47:06;;;;;;;0.22;0.22;;;13.60;67.30;;;;;;5014011;28;20536;-65
2021/05/11 00:49:34;;;;;;;0.20;0.20;;;13.60;67.30;;;;;;5000293;28;20095;-65
2021/05/11 00:52:02;;;;;;;0.30;0.30;;;13.60;67.40;;;;;;5013966;28;20053;-65
2021/05/11 00:54:28;;;;;;;0.30;0.30;;;13.60;67.40;;;;;;5014137;28;20136;-65
2021/05/11 00:56:56;;;;;;;0.20;0.20;;;13.60;67.60;;;;;;5013593;28;20128;-65
2021/05/11 00:59:26;;;;;;;0.30;0.30;;;13.60;67.70;;;;;;5013996;28;20103;-65
2021/05/11 01:01:54;;;;;;;0.10;0.10;;;13.60;67.80;;;;;;5013666;28;20046;-65
2021/05/11 01:04:22;;;;;;;0.30;0.30;;;13.60;67.90;;;;;;5013645;28;20053;-65
2021/05/11 01:06:48;;;;;;;0.20;0.20;;;13.60;68.00;;;;;;5013203;28;20091;-65
2021/05/11 01:09:15;;;;;;;0.17;0.17;;;13.60;68.10;;;;;;5013671;28;20095;-65
2021/05/11 01:11:43;;;;;;;0.30;0.30;;;13.60;68.10;;;;;;5013336;28;20046;-65
2021/05/11 01:14:09;;;;;;;0.30;0.30;;;13.60;67.80;;;;;;5013405;28;20053;-65
2021/05/11 01:16:36;;;;;;;0.20;0.20;;;13.60;67.80;;;;;;5012804;28;20177;-65
2021/05/11 01:24:08;;;;;;;0.32;0.32;;;13.70;67.80;;;;;;5004394;28;20432;-65
2021/05/11 01:26:48;;;;;;;0.30;0.30;;;13.60;67.80;;;;;;5009908;28;20050;-65
2021/05/11 01:50:20;;;;;;;0.20;0.20;;;13.60;68.40;;;;;;5012925;28;20042;-65
2021/05/11 01:52:57;;;;;;;0.30;0.30;;;13.50;69.10;;;;;;5012613;28;20448;-65
2021/05/11 02:22:42;;;;;;;0.20;0.20;;;13.20;70.20;;;;;;5012034;28;20129;-65
2021/05/11 02:25:10;;;;;;;0.40;0.40;;;13.10;70.30;;;;;;5012252;28;20050;-65
2021/05/11 02:27:37;;;;;;;0.50;0.38;;;13.00;71.70;;;;;;5012468;28;20097;-65
2021/05/11 02:30:07;;;;;;;0.60;0.50;;;12.60;72.90;;;;;;5011768;28;20045;-65
2021/05/11 02:32:38;;;;;;;0.73;0.45;;;12.40;73.90;;;;;;5012118;28;20547;-65
2021/05/11 02:35:05;;;;;;;0.30;0.30;;;12.30;75.00;;;;;;5011824;28;20476;-65
2021/05/11 02:37:31;;;;;;;0.30;0.30;;;12.30;74.80;;;;;;5012103;28;20497;-65
2021/05/11 02:39:58;;;;;;;0.30;0.30;;;12.40;74.30;;;;;;5012376;28;20061;-65
2021/05/11 02:42:24;;;;;;;0.50;0.47;;;12.50;75.10;;;;;;5012261;28;20046;-64
2021/05/11 02:44:52;;;;;;;0.50;0.50;;;12.40;75.20;;;;;;5007530;28;20078;-64
2021/05/11 02:47:18;;;;;;;0.30;0.30;;;12.40;74.70;;;;;;5009345;28;20425;-65
2021/05/11 02:49:46;;;;;;;0.43;0.32;;;12.50;74.50;;;;;;5012114;28;20121;-65
2021/05/11 02:52:13;;;;;;;0.75;0.60;;;12.50;74.20;;;;;;5011521;28;20557;-65
2021/05/11 02:54:40;;;;;;;0.38;0.38;;;12.60;73.80;;;;;;5011406;28;20050;-64
2021/05/11 02:57:08;;;;;;;0.63;0.50;;;12.70;73.70;;;;;;5011172;28;20125;-64
2021/05/11 02:59:34;;;;;;;0.40;0.40;;;12.70;73.20;;;;;;5011933;28;20143;-65
2021/05/11 03:02:00;;;;;;;0.50;0.50;;;12.80;73.30;;;;;;5003040;28;20046;-65
2021/05/11 03:04:27;;;;;;;0.57;0.40;;;12.80;73.40;;;;;;5000807;28;20111;-64
2021/05/11 03:06:57;;;;;;;0.20;0.20;;;12.70;73.80;;;;;;4999144;28;20057;-65
2021/05/11 03:09:24;;;;;;;0.45;0.40;;;12.70;73.70;;;;;;5002389;28;20168;-64
2021/05/11 03:11:52;;;;;;;0.30;0.30;;;12.70;73.50;;;;;;4997056;28;20046;-64
2021/05/11 03:14:18;;;;;;;0.60;0.50;;;12.80;73.30;;;;;;5004545;28;20537;-64
2021/05/11 03:16:46;;;;;;;0.40;0.40;;;12.80;73.20;;;;;;4998760;28;20104;-64
2021/05/11 03:19:12;;;;;;;0.30;0.30;;;12.90;73.00;;;;;;4996848;28;20057;-64
2021/05/11 03:21:39;;;;;;;0.93;0.50;;;12.90;72.80;;;;;;5007794;28;20099;-64
2021/05/11 03:24:07;;;;;;;0.47;0.40;;;12.90;73.10;;;;;;4996383;28;20042;-64
2021/05/11 03:26:33;;;;;;;0.20;0.20;;;12.90;73.40;;;;;;5000803;28;20077;-69
2021/05/11 03:29:00;;;;;;;0.45;0.45;;;12.80;73.10;;;;;;4996092;28;20485;-64
2021/05/11 03:31:26;;;;;;;0.38;0.38;;;12.80;72.90;;;;;;5008735;28;20053;-65
2021/05/11 03:33:53;;;;;;;0.30;0.30;;;12.80;72.70;;;;;;5011050;28;20042;-64
2021/05/11 03:36:19;;;;;;;0.40;0.40;;;12.80;72.90;;;;;;5011403;28;20107;-64
2021/05/11 03:38:49;;;;;;;0.30;0.30;;;12.80;72.90;;;;;;5011113;28;20169;-64
2021/05/11 03:41:17;;;;;;;0.40;0.40;;;12.80;73.20;;;;;;5011257;28;20176;-65
2021/05/11 03:43:54;;;;;;;0.47;0.40;;;12.70;73.80;;;;;;5010989;28;20573;-69
2021/05/11 03:46:20;;;;;;;0.30;0.30;;;12.60;73.90;;;;;;5011044;28;20038;-69
2021/05/11 03:48:47;;;;;;;0.20;0.20;;;12.50;74.50;;;;;;5011103;28;20577;-69
2021/05/11 03:51:14;;;;;;;0.40;0.40;;;12.40;74.90;;;;;;5010907;28;20073;-69
2021/05/11 03:53:40;;;;;;;0.30;0.30;;;12.30;75.20;;;;;;5010970;28;20085;-70
2021/05/11 03:56:07;;;;;;;0.20;0.20;;;12.30;75.30;;;;;;5011164;28;20049;-69
2021/05/11 03:58:33;;;;;;;0.32;0.32;;;12.20;75.20;;;;;;5011126;28;20054;-70
2021/05/11 04:01:00;;;;;;;0.30;0.30;;;12.30;75.00;;;;;;5010611;28;20489;-69
2021/05/11 04:03:26;;;;;;;0.32;0.32;;;12.30;74.70;;;;;;5011214;28;20532;-70
2021/05/11 04:05:54;;;;;;;0.35;0.35;;;12.40;74.50;;;;;;5010544;28;20042;-70
2021/05/11 04:13:57;;;;;;;0.57;0.40;;;12.50;73.70;;;;;;5014613;28;20109;-70
2021/05/11 04:16:25;;;;;;;0.28;0.28;;;12.50;73.30;;;;;;5014353;28;20494;-70
2021/05/11 04:18:52;;;;;;;0.20;0.20;;;12.50;73.10;;;;;;5014626;28;20131;-70
2021/05/11 04:21:20;;;;;;;0.30;0.30;;;12.40;72.90;;;;;;5014107;28;20138;-70
2021/05/11 04:23:48;;;;;;;0.30;0.30;;;12.50;72.90;;;;;;5014730;28;20045;-70
2021/05/11 04:26:14;;;;;;;0.35;0.30;;;12.40;72.80;;;;;;5013954;28;20070;-70
2021/05/11 04:28:41;;;;;;;0.30;0.30;;;12.40;72.90;;;;;;5014500;28;20115;-70
2021/05/11 04:31:08;;;;;;;0.15;0.15;;;12.40;72.80;;;;;;5014065;28;20579;-70
2021/05/11 04:33:34;;;;;;;0.30;0.30;;;12.40;72.70;;;;;;5014525;28;20493;-70
2021/05/11 04:36:03;;;;;;;0.38;0.38;;;12.40;72.60;;;;;;5014445;28;20176;-70
2021/05/11 04:38:29;;;;;;;0.30;0.30;;;12.40;72.50;;;;;;5013982;28;20622;-70
2021/05/11 04:40:56;;;;;;;0.30;0.30;;;12.40;72.50;;;;;;5014217;28;20390;-69
2021/05/11 04:43:28;;;;;;;0.22;0.20;;;12.40;72.50;;;;;;5013660;28;20133;-69
2021/05/11 04:48:39;;;;;;;0.20;0.20;;;12.50;72.50;;;;;;5013941;28;20188;-69
2021/05/11 04:51:06;;;;;;;0.30;0.30;;;12.50;72.30;;;;;;5013934;28;20544;-69
2021/05/11 04:53:32;;;;;;;0.30;0.30;;;12.50;72.20;;;;;;5014180;28;20057;-69
2021/05/11 04:55:59;;;;;;;0.30;0.20;;;12.50;72.30;;;;;;5013727;28;20054;-70
2021/05/11 04:58:25;;;;;;;0.20;0.20;;;12.50;72.20;;;;;;5013682;28;20416;-70
2021/05/11 05:00:59;;;;;;;0.20;0.20;;;12.50;72.20;;;;;;5014008;28;20052;-70
2021/05/11 05:03:26;;;;;;;0.63;0.35;;;12.50;72.10;;;;;;5008389;28;20050;-70
2021/05/11 05:05:53;;;;;;;0.45;0.32;;;12.50;72.30;;;;;;5001932;28;20041;-69
2021/05/11 05:08:19;;;;;;;0.22;0.22;;;12.40;72.30;;;;;;5001810;28;20351;-69
2021/05/11 05:10:45;;;;;;;0.30;0.30;;;12.40;72.50;;;;;;5000418;28;20046;-69
2021/05/11 05:13:21;;;;;;;0.40;0.30;;;12.30;72.90;;;;;;5009110;28;20076;-70
2021/05/11 05:15:57;;;;;;;0.30;0.30;;;12.20;73.10;;;;;;5001878;28;20054;-70
2021/05/11 05:18:26;;;;;;;0.40;0.40;;;12.20;73.20;;;;;;5007942;28;20054;-69
2021/05/11 05:20:53;;;;;;;0.30;0.20;;;12.20;73.50;;;;;;4998162;28;20509;-69
2021/05/11 05:23:21;;;;;;;0.38;0.30;;;12.10;73.60;;;;;;5002171;28;20077;-70
2021/05/11 05:25:58;;;;;;;0.20;0.20;;;12.10;73.70;;;;;;5012110;28;20053;-68
2021/05/11 05:28:25;;;;;;;0.40;0.40;;;12.10;74.00;;;;;;5004967;28;20632;-68
2021/05/11 05:30:52;;;;;;;0.30;0.20;;;12.10;74.20;;;;;;5006936;28;20191;-69
2021/05/11 05:33:18;;;;;;;0.30;0.30;;;12.10;74.00;;;;;;5013079;28;20147;-69
2021/05/11 05:35:45;;;;;;;1.02;0.47;;;12.10;74.20;;;;;;5013163;28;20049;-69
2021/05/11 05:38:12;;;;;;;0.32;0.30;;;12.10;74.00;;;;;;5000546;28;20050;-68
2021/05/11 05:40:40;;;;;;;0.30;0.30;;;12.10;74.00;;;;;;5012251;28;20081;-68
2021/05/11 05:43:07;;;;;;;0.50;0.40;;;12.10;73.90;;;;;;5012451;28;20053;-69
2021/05/11 05:45:34;;;;;;;0.32;0.30;;;12.20;74.00;;;;;;5009726;28;20707;-69
2021/05/11 05:48:01;;;;;;;0.55;0.40;;;12.20;73.80;;;;;;5012339;28;20054;-69
2021/05/11 05:50:29;;;;;;;0.47;0.20;;;12.30;73.90;;;;;;5011893;28;20050;-69
2021/05/11 05:53:02;;;;;;;0.30;0.28;;;12.30;73.80;;;;;;5011588;28;20074;-69
2021/05/11 05:55:29;;;;;;;0.32;0.30;;;12.30;73.90;;;;;;5010879;28;20050;-69
2021/05/11 05:57:56;;;;;;;0.30;0.30;;;12.20;74.20;;;;;;5011998;28;20567;-69
2021/05/11 06:00:24;;;;;;;0.50;0.30;;;12.20;74.10;;;;;;5011812;28;20496;-71
2021/05/11 06:02:52;;;;;;;0.15;0.15;;;12.20;74.00;;;;;;4998921;28;20046;-69
2021/05/11 06:05:21;;;;;;;0.73;0.47;;;12.30;73.90;;;;;;4998284;28;20133;-69
2021/05/11 06:07:47;;;;;;;0.30;0.30;;;12.30;74.00;;;;;;5007101;28;20053;-69
2021/05/11 06:10:13;;;;;;;0.57;0.40;;;12.30;73.90;;;;;;4997891;28;20046;-69
2021/05/11 06:12:51;;;;;;;0.40;0.28;;;12.30;73.70;;;;;;5003626;28;20057;-69
2021/05/11 06:18:03;;;;;;;0.52;0.40;;;12.50;73.60;;;;;;5011420;28;20176;-71
2021/05/11 06:20:29;;;;;;;0.45;0.28;;;12.60;73.30;;;;;;5008820;28;20481;-72
2021/05/11 06:22:55;;;;;;;0.35;0.30;;;12.60;73.20;;;;;;4999058;28;20124;-69
2021/05/11 06:25:21;;;;;;;0.32;0.30;;;12.60;73.10;;;;;;5005845;28;20104;-67
2021/05/11 06:27:55;;;;;;;0.30;0.30;;;12.70;73.00;;;;;;4996276;28;20125;-69
2021/05/11 06:30:22;;;;;;;0.30;0.30;;;12.80;72.90;;;;;;5000882;28;20440;-69
2021/05/11 06:32:48;;;;;;;0.32;0.32;;;12.70;72.60;;;;;;5012076;28;20604;-69
2021/05/11 06:35:15;;;;;;;0.57;0.30;;;12.80;72.70;;;;;;5006786;28;21311;-70
2021/05/11 06:37:41;;;;;;;0.50;0.30;;;12.80;72.70;;;;;;5003635;28;20046;-69
2021/05/11 06:40:08;;;;;;;0.20;0.20;;;12.90;72.60;;;;;;5008661;28;20124;-69
2021/05/11 06:42:38;;;;;;;0.50;0.30;;;12.90;72.40;;;;;;5001016;28;20065;-69
2021/05/11 06:47:59;;;;;;;0.40;0.40;;;13.10;72.40;;;;;;5007909;28;20111;-67
2021/05/11 06:53:20;;;;;;;0.50;0.40;;;13.20;71.80;;;;;;5008130;28;20129;-67
2021/05/11 06:55:47;;;;;;;0.40;0.32;;;13.30;71.10;;;;;;5008713;28;20050;-67
2021/05/11 06:58:14;;;;;;;0.40;0.40;;;13.40;70.90;;;;;;5005972;28;20185;-67
2021/05/11 07:00:43;;;;;;;0.50;0.50;;;13.50;70.70;;;;;;5000549;28;20058;-68
2021/05/11 07:03:10;;;;;;;0.53;0.50;;;13.60;70.10;;;;;;5002749;28;20046;-68
2021/05/11 07:05:37;;;;;;;0.45;0.40;;;13.70;70.50;;;;;;4997133;28;20058;-67
2021/05/11 07:08:13;;;;;;;1.27;0.47;;;13.80;69.50;;;;;;5002350;28;20143;-67
2021/05/11 07:10:41;;;;;;;0.40;0.38;;;13.90;69.20;;;;;;5008552;28;20107;-68
2021/05/11 07:13:11;;;;;;;0.45;0.40;;;14.00;68.60;;;;;;4998430;28;20042;-68
2021/05/11 07:15:42;;;;;;;0.60;0.40;;;14.10;68.30;;;;;;4996770;28;20077;-67
2021/05/11 07:18:13;;;;;;;0.88;0.63;;;14.30;68.00;;;;;;4993236;28;20042;-69
2021/05/11 07:20:42;;;;;;;0.40;0.40;;;14.40;67.10;;;;;;4996315;28;20045;-68
2021/05/11 07:23:08;;;;;;;0.63;0.40;;;14.50;66.10;;;;;;4997341;28;20489;-68
2021/05/11 07:26:05;;;;;;;0.75;0.40;;;14.60;66.30;;;;;;4998834;28;20071;-68
2021/05/11 07:31:06;;;;;;;0.52;0.52;;;14.80;64.70;;;;;;4999707;28;20070;-68
2021/05/11 07:33:37;;;;;;;0.43;0.40;;;14.90;65.10;;;;;;4995363;28;20213;-67
2021/05/11 07:36:05;;;;;;;0.60;0.50;;;15.10;64.20;;;;;;5004688;28;20084;-66
2021/05/11 07:38:31;;;;;;;0.70;0.60;;;15.40;63.30;;;;;;5009743;28;20050;-67
2021/05/11 07:40:58;;;;;;;0.68;0.60;;;15.60;62.10;;;;;;4994721;28;20057;-68
2021/05/11 07:43:27;;;;;;;0.60;0.50;;;15.90;60.70;;;;;;4997663;28;20054;-67
2021/05/11 08:16:09;;;;;;;0.35;0.25;;;17.80;53.40;;;;;;4998471;28;20052;-67
2021/05/11 08:18:49;;;;;;;0.65;0.38;;;17.90;52.20;;;;;;5006928;28;20089;-68
2021/05/11 08:29:31;;;;;;;1.35;0.68;;;17.50;51.00;;;;;;5007719;28;20509;-67
2021/05/11 08:31:58;;;;;;;0.77;0.57;;;17.20;50.50;;;;;;5009985;28;20055;-68
2021/05/11 08:34:24;;;;;;;0.50;0.50;;;17.00;51.40;;;;;;5009497;28;20042;-68
2021/05/11 08:36:50;;;;;;;0.40;0.40;;;16.90;51.30;;;;;;5012306;28;20060;-68
2021/05/11 08:39:17;;;;;;;0.95;0.52;;;17.00;51.70;;;;;;5012267;28;20188;-67
2021/05/11 08:41:43;;;;;;;0.55;0.50;;;17.00;51.40;;;;;;5012484;28;20097;-68
2021/05/11 08:44:14;;;;;;;0.57;0.40;;;16.90;51.80;;;;;;5012403;28;20116;-69
2021/05/11 08:46:41;;;;;;;0.80;0.40;;;17.00;52.20;;;;;;5002155;28;20531;-67
2021/05/11 08:49:12;;;;;;;0.60;0.60;;;17.10;51.20;;;;;;5012242;28;20052;-67
2021/05/11 08:51:52;;;;;;;;;;;17.00;51.00;;;;;;5013790;28;20417;-68
2021/05/11 09:00:14;;;;;;;0.50;0.50;;;17.00;52.40;;;;;;5008792;28;20050;-68
2021/05/11 09:27:14;;;;;;;0.40;0.30;;;17.70;45.40;;;;;;5001696;28;20131;-65
2021/05/11 09:55:14;;;;;;;0.30;0.20;;;16.50;53.40;;;;;;5003230;28;20604;-66
2021/05/11 09:57:52;;;;;;;0.40;0.28;;;17.10;52.80;;;;;;4993824;28;20304;-66
2021/05/11 10:48:32;;;;;;;0.82;0.40;;;17.50;39.90;;;;;;4912875;29;20044;-67
2021/05/11 10:51:05;;;;;;;0.57;0.40;;;17.30;40.00;;;;;;4933458;28;20085;-66
2021/05/11 10:53:41;;;;;;;1.38;0.70;;;17.30;40.20;;;;;;4989014;28;20135;-66
2021/05/11 10:56:33;;;;;;;0.60;0.47;;;17.40;40.60;;;;;;4988997;28;20038;-67
2021/05/11 10:59:44;;;;;;;1.50;0.70;;;17.40;40.30;;;;;;4989044;28;20046;-65
2021/05/11 11:04:52;;;;;;;0.40;0.40;;;17.30;38.90;;;;;;4987338;28;20062;-66
2021/05/11 11:07:40;;;;;;;0.32;0.32;;;17.40;38.90;;;;;;4989470;28;20050;-66
2021/05/11 11:10:09;;;;;;;0.50;0.30;;;17.50;39.20;;;;;;4995111;28;20054;-65
2021/05/11 11:12:37;;;;;;;0.55;0.30;;;17.50;39.40;;;;;;4989544;28;20262;-66
2021/05/11 11:15:13;;;;;;;0.75;0.47;;;17.50;39.80;;;;;;4989064;28;20089;-66
2021/05/11 11:17:41;;;;;;;0.30;0.30;;;17.20;40.30;;;;;;4988717;28;20046;-65
2021/05/11 11:20:11;;;;;;;0.50;0.50;;;17.10;40.90;;;;;;4988204;28;20138;-65
2021/05/11 11:25:27;;;;;;;0.77;0.50;;;16.70;42.30;;;;;;5005867;28;20543;-66
2021/05/11 11:27:53;;;;;;;0.65;0.43;;;16.40;43.60;;;;;;5010642;28;20046;-66
2021/05/11 11:30:20;;;;;;;0.75;0.40;;;16.40;44.20;;;;;;5010584;28;20042;-66
2021/05/11 11:32:47;;;;;;;0.60;0.50;;;16.50;42.80;;;;;;5011098;28;20501;-65
2021/05/11 11:35:13;;;;;;;0.77;0.40;;;16.50;42.20;;;;;;5010067;28;20271;-66
2021/05/11 11:37:41;;;;;;;0.30;0.30;;;16.60;42.50;;;;;;5007223;28;20092;-66
2021/05/11 11:40:12;;;;;;;0.40;0.40;;;16.60;42.80;;;;;;5009421;28;20196;-66
2021/05/11 11:42:40;;;;;;;0.52;0.43;;;16.60;42.10;;;;;;5008692;28;20449;-66
2021/05/11 11:45:09;;;;;;;0.50;0.40;;;16.60;42.90;;;;;;5009687;28;20045;-66
2021/05/11 11:47:42;;;;;;;0.90;0.50;;;16.60;43.20;;;;;;5010959;28;20050;-66
2021/05/11 11:50:12;;;;;;;1.05;0.40;;;16.50;43.20;;;;;;5010608;28;20143;-66
2021/05/11 11:55:12;;;;;;;0.40;0.40;;;16.60;44.60;;;;;;5010004;28;20093;-66
2021/05/11 11:57:55;;;;;;;1.08;0.50;;;16.70;44.20;;;;;;5011251;28;20046;-66
2021/05/11 12:00:30;;;;;;;0.55;0.47;;;16.80;44.40;;;;;;5007744;28;20560;-66
2021/05/11 12:03:04;;;;;;;1.50;0.50;;;16.70;46.00;;;;;;5011115;28;20181;-66
2021/05/11 12:05:36;;;;;;;0.50;0.40;;;16.60;46.70;;;;;;5008302;28;20057;-66
2021/05/11 12:10:46;;;;;;;0.22;0.22;;;16.30;46.40;;;;;;5003970;28;20046;-66
2021/05/11 12:13:17;;;;;;;0.10;0.10;;;16.20;46.00;;;;;;5007314;28;20050;-66
2021/05/11 12:15:43;;;;;;;0.28;0.28;;;16.10;45.80;;;;;;5004966;28;20124;-66
2021/05/11 12:20:42;;;;;;;0.20;0.20;;;16.00;47.60;;;;;;5009951;28;20408;-66
2021/05/11 12:23:12;;;;;;;0.20;0.20;;;16.10;47.90;;;;;;5009004;28;20487;-66
2021/05/11 12:25:38;;;;;;;0.30;0.30;;;16.20;48.00;;;;;;5009893;28;20516;-66
2021/05/11 12:28:05;;;;;;;0.68;0.30;;;16.20;49.00;;;;;;5001629;28;20046;-66
2021/05/11 12:30:42;;;;;;;1.40;0.30;;;16.10;49.40;;;;;;5010812;28;20050;-66
2021/05/11 12:33:11;;;;;;;0.20;0.20;;;16.00;49.80;;;;;;5014501;28;20129;-67
2021/05/11 12:35:42;;;;;;;0.20;0.20;;;15.90;50.20;;;;;;5013561;28;20565;-66
2021/05/11 12:38:19;;;;;;;0.65;0.40;;;15.90;51.00;;;;;;5013774;28;20566;-66
2021/05/11 12:40:52;;;;;;;0.45;0.45;;;15.80;51.90;;;;;;5007288;28;20058;-66
2021/05/11 12:43:57;;;;;;;0.98;0.40;;;15.60;53.70;;;;;;5003293;28;20086;-66
2021/05/11 12:46:30;;;;;;;1.13;0.20;;;15.50;55.40;;;;;;4986764;28;20443;-66
2021/05/11 12:49:18;;;;;;;0.40;0.40;;;15.40;56.40;;;;;;4991195;28;20116;-66
2021/05/11 12:51:51;;;;;;;0.20;0.20;;;15.40;55.60;;;;;;5000643;28;20064;-66
2021/05/11 12:54:42;;;;;;;0.52;0.25;;;15.50;55.20;;;;;;4986095;28;20097;-69
2021/05/11 13:09:25;;;;;;;0.43;0.35;;;15.80;55.30;;;;;;4989907;28;20576;-74
2021/05/11 13:16:49;;;;;;;0.50;0.35;;;16.30;53.00;;;;;;4994292;28;20050;-74
2021/05/11 13:32:52;;;;;;;0.40;0.40;;;15.70;60.20;;;;;;5011058;28;20564;-74
2021/05/11 13:35:19;;;;;;;0.60;0.60;;;15.60;60.20;;;;;;5000818;28;20050;-74
2021/05/11 13:37:45;;;;;;;0.93;0.50;;;15.60;60.10;;;;;;4999865;28;20050;-74
2021/05/11 13:40:12;;;;;;;1.15;0.40;;;15.50;59.60;;;;;;4997364;28;20046;-73
2021/05/11 13:42:38;;;;;;;0.60;0.60;;;15.50;59.10;;;;;;4996342;28;20181;-73
2021/05/11 13:45:06;;;;;;;0.55;0.52;;;15.50;59.50;;;;;;5002924;28;20793;-74
2021/05/11 13:47:33;;;;;;;0.70;0.50;;;15.50;59.20;;;;;;4994927;28;20767;-74
2021/05/11 13:50:02;;;;;;;0.50;0.40;;;15.50;59.40;;;;;;4995220;28;20125;-74
2021/05/11 13:52:30;;;;;;;0.82;0.50;;;15.60;59.30;;;;;;4999191;28;20050;-73
2021/05/11 13:55:01;;;;;;;0.70;0.52;;;15.70;59.10;;;;;;5006106;28;20442;-73
2021/05/11 14:02:57;;;;;;;1.40;0.70;;;15.80;59.10;;;;;;4992900;28;20551;-73
2021/05/11 14:05:24;;;;;;;0.50;0.40;;;15.80;59.60;;;;;;4992721;28;20058;-73
2021/05/11 14:07:50;;;;;;;0.52;0.50;;;15.80;59.40;;;;;;4994777;28;20076;-74
2021/05/11 14:10:18;;;;;;;1.00;0.43;;;15.90;58.20;;;;;;4994877;28;20077;-74
2021/05/11 14:12:45;;;;;;;0.40;0.38;;;15.90;55.00;;;;;;4997715;28;20433;-73
2021/05/11 14:15:12;;;;;;;0.30;0.30;;;15.90;54.20;;;;;;4994179;28;20153;-73
2021/05/11 14:17:39;;;;;;;0.95;0.50;;;15.80;55.00;;;;;;4997187;28;20482;-73
2021/05/11 14:20:06;;;;;;;0.57;0.57;;;15.80;56.20;;;;;;4995736;28;20196;-73
2021/05/11 14:22:32;;;;;;;0.50;0.50;;;15.80;57.90;;;;;;4996896;28;20439;-74
2021/05/11 14:24:59;;;;;;;0.70;0.60;;;15.70;59.40;;;;;;5005676;28;20509;-74
2021/05/11 14:27:27;;;;;;;0.93;0.50;;;15.50;58.70;;;;;;5002832;28;20074;-74
2021/05/11 14:29:53;;;;;;;0.95;0.50;;;15.30;59.80;;;;;;5003286;28;20129;-73
2021/05/11 14:32:19;;;;;;;1.23;0.50;;;15.20;59.80;;;;;;5011512;28;20050;-72
2021/05/11 14:34:47;;;;;;;1.08;0.60;;;15.10;60.20;;;;;;5011376;28;20058;-73
2021/05/11 14:37:13;;;;;;;0.65;0.50;;;15.10;60.80;;;;;;5010863;28;20177;-73
2021/05/11 14:39:40;;;;;;;0.55;0.55;;;15.10;61.40;;;;;;5000465;28;20387;-73
2021/05/11 14:42:06;;;;;;;0.55;0.50;;;15.10;61.50;;;;;;4993481;28;20151;-73
2021/05/11 14:44:33;;;;;;;0.52;0.52;;;15.20;60.10;;;;;;4999871;28;20434;-73
2021/05/11 14:46:59;;;;;;;0.98;0.60;;;15.20;59.50;;;;;;5002089;28;20078;-74
2021/05/11 14:49:26;;;;;;;0.30;0.30;;;15.30;58.80;;;;;;4991809;28;20490;-73
2021/05/11 14:51:52;;;;;;;0.93;0.50;;;15.40;58.50;;;;;;4997022;28;20043;-74
2021/05/11 14:54:19;;;;;;;1.75;0.60;;;15.50;58.10;;;;;;5002159;28;20041;-74
2021/05/11 14:56:45;;;;;;;0.55;0.50;;;15.60;57.40;;;;;;5008181;28;20061;-73
2021/05/11 14:59:11;;;;;;;0.95;0.80;;;15.60;57.20;;;;;;5005218;28;20061;-73
2021/05/11 15:01:39;;;;;;;0.75;0.70;;;15.70;57.50;;;;;;5001612;28;20108;-73
2021/05/11 15:04:05;;;;;;;1.13;0.90;;;15.90;57.60;;;;;;5001327;28;20046;-73
2021/05/11 15:06:33;;;;;;;1.48;0.70;;;15.90;57.50;;;;;;5004456;28;20057;-74
2021/05/11 15:09:00;;;;;;;1.27;0.80;;;16.00;56.80;;;;;;5004389;28;20099;-73
2021/05/11 15:11:26;;;;;;;0.68;0.68;;;16.00;56.10;;;;;;4993546;28;20054;-73
2021/05/11 15:13:55;;;;;;;1.25;0.70;;;15.90;56.20;;;;;;4996867;28;20493;-73
2021/05/11 15:16:23;;;;;;;1.13;0.73;;;15.90;58.60;;;;;;5001935;28;20073;-73
2021/05/11 15:18:50;;;;;;;1.38;0.80;;;15.90;60.00;;;;;;5000150;28;20340;-73
2021/05/11 15:21:18;;;;;;;0.95;0.80;;;15.80;61.40;;;;;;4995218;28;20072;-69
2021/05/11 15:23:47;;;;;;;1.27;0.80;;;15.90;61.70;;;;;;4994680;28;20534;-69
2021/05/11 15:26:16;;;;;;;1.02;0.82;;;15.90;61.70;;;;;;5002524;28;20081;-69
2021/05/11 15:28:43;;;;;;;1.20;0.75;;;16.00;60.60;;;;;;4997157;28;20050;-69
2021/05/11 15:31:09;;;;;;;0.60;0.60;;;16.00;60.00;;;;;;5008170;28;20054;-70
2021/05/11 15:33:36;;;;;;;1.23;0.70;;;16.00;58.50;;;;;;5003320;28;20045;-70
2021/05/11 15:36:03;;;;;;;0.88;0.80;;;16.00;56.20;;;;;;4999739;28;20135;-69
2021/05/11 15:38:31;;;;;;;1.08;0.70;;;16.00;54.70;;;;;;5008270;28;20527;-69
2021/05/11 15:40:58;;;;;;;1.25;0.90;;;16.00;54.30;;;;;;5010822;28;20135;-69
2021/05/11 15:43:25;;;;;;;2.47;1.00;;;16.00;54.50;;;;;;5011040;28;20131;-69
2021/05/11 15:45:51;;;;;;;1.75;1.00;;;16.00;54.00;;;;;;4995949;28;20043;-69
2021/05/11 15:48:18;;;;;;;0.75;0.70;;;16.00;54.30;;;;;;4990535;28;20046;-69
2021/05/11 15:50:46;;;;;;;1.08;0.90;;;16.10;53.40;;;;;;4999241;28;20069;-69
2021/05/11 15:53:18;;;;;;;1.38;0.90;;;16.10;52.40;;;;;;5010836;28;20045;-69
2021/05/11 15:55:49;;;;;;;0.70;0.70;;;16.10;52.10;;;;;;5010521;28;20053;-69
2021/05/11 15:58:17;;;;;;;;;;;16.00;50.80;;;;;;5010968;28;20132;-69
2021/05/11 16:00:48;;;;;;;1.15;0.80;;;16.00;51.10;;;;;;5023716;28;20011;-69
2021/05/11 16:03:15;;;;;;;0.70;0.70;;;16.10;51.60;;;;;;5012487;28;20061;-70
2021/05/11 16:05:42;;;;;;;1.40;0.82;;;16.10;50.40;;;;;;5013538;28;20053;-70
2021/05/11 16:08:11;;;;;;;0.90;0.80;;;16.10;50.60;;;;;;5000397;28;20042;-70
2021/05/11 16:10:38;;;;;;;0.98;0.85;;;16.10;50.30;;;;;;5002781;28;20225;-69
2021/05/11 16:13:05;;;;;;;0.68;0.60;;;16.10;49.60;;;;;;5011528;28;20042;-70
2021/05/11 16:15:31;;;;;;;0.50;0.50;;;16.10;48.90;;;;;;5014184;28;20568;-69
2021/05/11 16:17:59;;;;;;;0.82;0.70;;;16.10;49.70;;;;;;5012035;28;20050;-70
2021/05/11 16:20:26;;;;;;;0.82;0.80;;;16.10;47.80;;;;;;5013894;28;20513;-70
2021/05/11 16:22:52;;;;;;;1.00;0.70;;;16.00;47.80;;;;;;5012749;28;20054;-70
2021/05/11 16:25:19;;;;;;;0.57;0.50;;;16.10;48.30;;;;;;5013539;28;20045;-70
2021/05/11 16:27:45;;;;;;;2.05;0.70;;;16.10;48.80;;;;;;5014061;28;20045;-70
2021/05/11 16:30:14;;;;;;;1.45;0.65;;;16.10;48.90;;;;;;5014104;28;20041;-69
2021/05/11 16:32:41;;;;;;;0.95;0.73;;;16.10;48.30;;;;;;5013802;28;20132;-70
2021/05/11 16:35:09;;;;;;;1.35;0.80;;;16.10;48.10;;;;;;5014000;28;20117;-70
2021/05/11 16:37:35;;;;;;;0.90;0.80;;;16.10;47.80;;;;;;5014143;28;20131;-70
2021/05/11 16:40:07;;;;;;;0.90;0.73;;;16.10;47.50;;;;;;5014052;28;20041;-69
2021/05/11 16:42:34;;;;;;;1.35;0.70;;;16.00;47.80;;;;;;5013473;28;20136;-69
2021/05/11 16:45:01;;;;;;;0.70;0.70;;;16.00;48.10;;;;;;5006518;28;20129;-70
2021/05/11 16:47:27;;;;;;;1.25;0.85;;;16.10;48.30;;;;;;5005455;28;20057;-69
2021/05/11 16:49:53;;;;;;;1.10;0.80;;;16.10;48.40;;;;;;5005563;28;20115;-69
2021/05/11 16:52:21;;;;;;;1.63;0.98;;;16.10;47.80;;;;;;5009409;28;20107;-71
2021/05/11 16:54:49;;;;;;;1.17;0.85;;;16.00;47.80;;;;;;5011429;28;20064;-69
2021/05/11 16:57:15;;;;;;;0.80;0.70;;;16.00;48.10;;;;;;5003512;28;20525;-71
2021/05/11 16:59:41;;;;;;;1.05;0.80;;;16.10;48.40;;;;;;5002648;28;20042;-69
2021/05/11 17:02:08;;;;;;;1.10;0.75;;;16.10;48.50;;;;;;5005484;28;20529;-69
2021/05/11 17:04:34;;;;;;;0.98;0.63;;;16.10;48.80;;;;;;5013070;28;20107;-69
2021/05/11 17:07:01;;;;;;;1.10;0.82;;;16.10;48.00;;;;;;5002418;28;20046;-69
2021/05/11 17:09:27;;;;;;;0.95;0.82;;;16.00;48.30;;;;;;5011969;28;20076;-69
2021/05/11 17:11:54;;;;;;;1.38;0.90;;;16.00;48.80;;;;;;4997164;28;20130;-69
2021/05/11 17:14:20;;;;;;;1.48;1.00;;;16.00;49.20;;;;;;5006518;28;20517;-69
2021/05/11 17:16:47;;;;;;;1.40;0.88;;;15.90;49.10;;;;;;5003081;28;20053;-69
2021/05/11 17:19:13;;;;;;;1.65;0.90;;;15.90;49.30;;;;;;5008026;28;20049;-72